Flight Track Log - Related Links

Times and Time Zones

All times are in EDT time to prevent confusion due to time zone crossing. See the CPT1940 flight status page for this flight to view local times or setup timezone preferences in your user account.

Time Position Orientation Groundspeed Altitude Reporting Facility
EDT Latitude Longitude Course Direction KTS MPH feet Rate Location/Type
Fri 08:57:12 AM 42.9419 -106.4131 103° East 144 166 7,600  Level Denver Center
Fri 08:58:13 AM 42.9378 -106.3561 96° East 138 159 8,300 590 Climbing Denver Center
Fri 08:59:14 AM 42.9356 -106.3072 94° East 136 157 8,800 344 Climbing Denver Center
Fri 09:00:15 AM 42.9344 -106.2556 92° East 139 160 9,000 98 Climbing Denver Center
Fri 09:01:00 AM 42.7845 -106.1058 113° Southeast  Level Estimated
Fri 09:01:16 AM 42.9314 -106.1881 94° East 152 175 9,000  Level Denver Center
Fri 09:02:00 AM 42.7735 -106.0416 103° East  Level FlightAware Approximate
Fri 09:02:17 AM 42.9289 -106.1292 93° East 159 183 9,000  Level Denver Center
Fri 09:03:18 AM 42.9281 -106.0689 91° East 163 188 9,000  Level Denver Center
Fri 09:04:19 AM 42.9258 -105.9989 92° East 164 189 9,000  Level Denver Center
Fri 09:05:20 AM 42.9239 -105.9392 93° East 165 190 9,000  Level Denver Center
Fri 09:06:21 AM 42.9214 -105.8783 93° East 167 192 9,000  Level Denver Center
Fri 09:07:22 AM 42.9144 -105.8089 98° East 167 192 9,000  Level Denver Center
Fri 09:08:22 AM 42.8939 -105.7536 117° Southeast 167 192 9,000  Level Denver Center
Fri 09:09:23 AM 42.8719 -105.6886 115° Southeast 168 193 9,000  Level Denver Center
Fri 09:10:24 AM 42.8547 -105.6336 113° Southeast 167 192 9,000  Level Denver Center
Fri 09:11:25 AM 42.8369 -105.5781 114° Southeast 168 193 9,000  Level Denver Center
Fri 09:12:26 AM 42.8156 -105.5131 114° Southeast 168 193 9,000  Level Denver Center
Fri 09:13:27 AM 42.7975 -105.4583 114° Southeast 167 192 9,000  Level Denver Center
Fri 09:14:28 AM 42.7797 -105.4028 114° Southeast 166 191 9,000  Level Denver Center
Fri 09:15:29 AM 42.7589 -105.3383 114° Southeast 167 192 9,000  Level Denver Center
Fri 09:16:30 AM 42.7408 -105.2839 114° Southeast 166 191 9,000  Level Denver Center
Fri 09:17:31 AM 42.7233 -105.2289 113° Southeast 166 191 9,000  Level Denver Center
Fri 09:18:32 AM 42.7025 -105.1656 114° Southeast 165 190 9,000  Level Denver Center
Fri 09:19:32 AM 42.6842 -105.1114 115° Southeast 164 189 9,000  Level Denver Center
Fri 09:20:33 AM 42.6658 -105.0561 114° Southeast 166 191 9,000  Level Denver Center
Fri 09:21:34 AM 42.6442 -104.9908 114° Southeast 168 193 9,000  Level Denver Center
Fri 09:22:35 AM 42.6261 -104.9361 114° Southeast 168 193 9,000  Level Denver Center
Fri 09:23:36 AM 42.6078 -104.8817 115° Southeast 167 192 9,000  Level Denver Center
Fri 09:24:37 AM 42.5867 -104.8172 114° Southeast 167 192 9,000  Level Denver Center
Fri 09:25:38 AM 42.5686 -104.7611 114° Southeast 168 193 9,000  Level Denver Center
Fri 09:26:39 AM 42.5469 -104.6975 115° Southeast 168 193 9,000  Level Denver Center
Fri 09:27:40 AM 42.5278 -104.6422 115° Southeast 170 196 9,000  Level Denver Center
Fri 09:28:41 AM 42.5056 -104.5900 120° Southeast 170 196 9,000  Level Denver Center
Fri 09:29:42 AM 42.4739 -104.5375 129° Southeast 164 189 9,000  Level Denver Center
Fri 09:30:42 AM 42.4450 -104.4917 130° Southeast 165 190 9,000  Level Denver Center
Fri 09:31:43 AM 42.4114 -104.4381 130° Southeast 167 192 9,000  Level Denver Center
Fri 09:32:44 AM 42.3819 -104.3917 131° Southeast 169 194 9,000  Level Denver Center
Fri 09:33:45 AM 42.3531 -104.3453 130° Southeast 168 193 9,000  Level Denver Center
Fri 09:34:46 AM 42.3200 -104.2878 128° Southeast 171 197 9,000  Level Denver Center
Fri 09:35:47 AM 42.2931 -104.2381 126° Southeast 172 198 9,000  Level Denver Center
Fri 09:36:48 AM 42.2650 -104.1889 128° Southeast 172 198 9,000  Level Denver Center
Fri 09:37:49 AM 42.2319 -104.1319 128° Southeast 173 199 9,000  Level Denver Center
Fri 09:38:50 AM 42.2039 -104.0836 128° Southeast 172 198 9,000  Level Denver Center
Fri 09:39:51 AM 42.1750 -104.0347 129° Southeast 173 199 9,000  Level Denver Center
Fri 09:40:52 AM 42.1419 -103.9769 128° Southeast 174 200 9,000 -148 Level Denver Center
Fri 09:41:53 AM 42.1133 -103.9281 128° Southeast 173 199 8,700 -492 Descending Denver Center
Fri 09:42:54 AM 42.0789 -103.8678 128° Southeast 178 205 8,000 -492 Descending Denver Center
Fri 09:43:55 AM 42.0469 -103.8189 131° Southeast 182 209 7,700 -492 Descending Denver Center
Fri 09:44:56 AM 42.0119 -103.7753 137° Southeast 179 206 7,000 -934 Descending Denver Center
Fri 09:45:57 AM 41.9719 -103.7250 137° Southeast 177 204 5,800 -639 Descending Denver Center
Fri 09:46:58 AM 41.9419 -103.6853 135° Southeast 167 192 5,700 -393 Descending Denver Center
Fri 09:47:59 AM 41.9156 -103.6506 136° Southeast 151 174 5,000 -738 Descending Denver Center
Fri 09:49:00 AM 41.8875 -103.6125 135° Southeast 135 155 4,200 -787 Descending Denver Center

Login

Don't have an account? Register now (free) for customized features, flight alerts, and more!